createdAt,value
2017-04-23T00:00:22.037Z,0
2017-04-23T00:01:07.149Z,0
2017-04-23T00:01:48.489Z,0
2017-04-23T00:02:34.715Z,0
2017-04-23T00:03:21.731Z,0
2017-04-23T00:04:02.146Z,0
2017-04-23T00:04:45.069Z,0
2017-04-23T00:05:32.196Z,0
2017-04-23T00:06:12.608Z,0
2017-04-23T00:06:53.022Z,0
2017-04-23T00:07:35.249Z,0
2017-04-23T00:08:15.616Z,0
2017-04-23T00:08:56.005Z,0
2017-04-23T00:09:38.218Z,0
2017-04-23T00:10:21.576Z,0
2017-04-23T00:11:04.856Z,0
2017-04-23T00:11:49.682Z,0
2017-04-23T00:12:31.020Z,0
2017-04-23T00:13:15.154Z,0
2017-04-23T00:14:00.066Z,0
2017-04-23T00:14:46.074Z,0
2017-04-23T00:15:28.241Z,0
2017-04-23T00:16:09.526Z,0
2017-04-23T00:17:00.598Z,0
2017-04-23T00:17:45.715Z,0
2017-04-23T00:18:27.865Z,0
2017-04-23T00:19:13.128Z,0
2017-04-23T00:19:55.399Z,0
2017-04-23T00:22:20.376Z,0
2017-04-23T00:23:09.310Z,0
2017-04-23T00:23:57.497Z,0
2017-04-23T00:24:46.125Z,0
2017-04-23T00:25:35.216Z,0
2017-04-23T00:26:23.793Z,0
2017-04-23T00:27:12.105Z,0
2017-04-23T00:28:00.871Z,0
2017-04-23T00:28:49.424Z,0
2017-04-23T00:29:37.926Z,0
2017-04-23T00:30:26.777Z,0
2017-04-23T00:31:15.197Z,0
2017-04-23T00:32:04.288Z,0
2017-04-23T00:32:52.822Z,0
2017-04-23T00:35:14.935Z,0
2017-04-23T00:36:03.305Z,0
2017-04-23T00:36:51.801Z,0
2017-04-23T00:37:40.465Z,0
2017-04-23T00:38:28.905Z,0
2017-04-23T00:39:18.432Z,0
2017-04-23T00:40:07.204Z,0
2017-04-23T00:40:55.706Z,0
2017-04-23T00:41:44.326Z,0
2017-04-23T00:42:33.117Z,0
2017-04-23T00:43:21.195Z,0
2017-04-23T00:44:09.692Z,0
2017-04-23T00:44:58.462Z,0
2017-04-23T00:45:47.300Z,0
2017-04-23T00:46:35.942Z,0
2017-04-23T00:47:24.184Z,0
2017-04-23T00:48:12.898Z,0
2017-04-23T00:49:01.520Z,0
2017-04-23T00:49:50.383Z,0
2017-04-23T00:50:38.694Z,0
2017-04-23T00:51:27.403Z,0
2017-04-23T00:52:16.360Z,0
2017-04-23T00:53:04.476Z,0
2017-04-23T00:53:53.021Z,0
2017-04-23T00:54:42.034Z,0
2017-04-23T00:55:30.866Z,0
2017-04-23T00:56:18.948Z,0
2017-04-23T00:57:07.284Z,0
2017-04-23T00:57:56.338Z,0
2017-04-23T00:58:44.678Z,0
2017-04-23T00:59:33.150Z,0
2017-04-23T01:00:21.920Z,0
2017-04-23T01:01:11.391Z,0
2017-04-23T01:01:59.510Z,0
2017-04-23T01:02:48.550Z,0
2017-04-23T01:03:36.669Z,0
2017-04-23T01:04:25.299Z,0
2017-04-23T01:05:14.248Z,0
2017-04-23T01:06:02.366Z,0
2017-04-23T01:06:51.220Z,0
2017-04-23T01:07:39.796Z,0
2017-04-23T01:08:28.358Z,0
2017-04-23T01:09:17.377Z,0
2017-04-23T01:10:05.646Z,0
2017-04-23T01:10:54.454Z,0
2017-04-23T01:11:44.394Z,0
2017-04-23T01:12:33.129Z,0
2017-04-23T01:13:21.938Z,0
2017-04-23T01:14:10.278Z,0
2017-04-23T01:14:58.931Z,0
2017-04-23T01:15:47.519Z,0
2017-04-23T01:16:36.458Z,0
2017-04-23T01:17:24.586Z,0
2017-04-23T01:18:13.218Z,0
2017-04-23T01:19:01.963Z,0
2017-04-23T01:19:50.686Z,0
2017-04-23T01:20:39.837Z,0
2017-04-23T01:21:27.986Z,0
2017-04-23T01:22:15.945Z,0
2017-04-23T01:23:03.561Z,0
2017-04-23T01:23:52.426Z,0
2017-04-23T01:24:40.948Z,0
2017-04-23T01:25:29.917Z,0
2017-04-23T01:26:18.144Z,0
2017-04-23T01:27:06.941Z,0
2017-04-23T01:27:55.473Z,0
2017-04-23T01:28:44.066Z,0
2017-04-23T01:29:32.615Z,0
2017-04-23T01:30:21.374Z,0
2017-04-23T01:31:09.966Z,0
2017-04-23T01:31:58.817Z,0
2017-04-23T01:32:47.309Z,0
2017-04-23T01:33:35.626Z,0
2017-04-23T01:34:24.337Z,0
2017-04-23T01:35:13.039Z,0
2017-04-23T01:36:01.877Z,0
2017-04-23T01:36:50.098Z,0
2017-04-23T01:37:38.553Z,0
2017-04-23T01:38:27.305Z,0
2017-04-23T01:39:16.145Z,0
2017-04-23T01:40:04.612Z,0
2017-04-23T01:40:53.880Z,0
2017-04-23T01:41:42.189Z,0
2017-04-23T01:42:31.206Z,0
2017-04-23T01:43:20.083Z,0
2017-04-23T01:44:08.585Z,0
2017-04-23T01:44:57.989Z,0
2017-04-23T01:45:46.847Z,0
2017-04-23T01:46:35.283Z,0
2017-04-23T01:47:23.567Z,0
2017-04-23T01:48:12.149Z,0
2017-04-23T01:49:00.991Z,0
2017-04-23T01:49:49.913Z,0
2017-04-23T01:50:38.127Z,0
2017-04-23T01:51:26.623Z,0
2017-04-23T01:52:15.222Z,0
2017-04-23T01:53:04.022Z,0
2017-04-23T01:53:52.454Z,0
2017-04-23T01:54:41.269Z,0
2017-04-23T01:55:29.829Z,0
2017-04-23T01:56:18.380Z,0
2017-04-23T01:57:07.070Z,0
2017-04-23T01:57:48.966Z,0
2017-04-23T01:58:30.884Z,0
2017-04-23T01:59:11.325Z,0
2017-04-23T01:59:52.563Z,0
2017-04-23T02:00:33.014Z,0
2017-04-23T02:01:13.406Z,0
2017-04-23T02:01:53.808Z,0
2017-04-23T02:02:34.205Z,0
2017-04-23T02:03:14.617Z,0
2017-04-23T02:03:54.984Z,0
2017-04-23T02:04:36.639Z,0
2017-04-23T02:08:46.513Z,0
2017-04-23T02:09:34.008Z,0
2017-04-23T02:10:22.004Z,0
2017-04-23T02:11:10.818Z,0
2017-04-23T02:11:59.478Z,0
2017-04-23T02:12:48.123Z,0
2017-04-23T02:13:36.947Z,0
2017-04-23T02:14:25.195Z,0
2017-04-23T02:15:14.591Z,0
2017-04-23T02:16:03.040Z,0
2017-04-23T02:16:51.543Z,0
2017-04-23T02:17:40.073Z,0
2017-04-23T02:18:22.617Z,0
2017-04-23T02:19:03.058Z,0
2017-04-23T02:19:44.860Z,0
2017-04-23T02:20:25.266Z,0
2017-04-23T02:21:07.363Z,0
2017-04-23T02:21:48.519Z,0
2017-04-23T02:22:28.886Z,0
2017-04-23T02:23:09.314Z,0
2017-04-23T02:23:52.715Z,0
2017-04-23T02:24:33.922Z,0
2017-04-23T02:25:16.107Z,0
2017-04-23T02:25:56.505Z,0
2017-04-23T02:26:36.880Z,0
2017-04-23T02:27:17.299Z,0
2017-04-23T02:27:59.434Z,0
2017-04-23T02:28:44.637Z,0
2017-04-23T02:29:25.849Z,0
2017-04-23T02:30:07.005Z,0
2017-04-23T02:30:49.926Z,0
2017-04-23T02:31:32.941Z,0
2017-04-23T02:32:13.308Z,0
2017-04-23T02:32:53.721Z,0
2017-04-23T02:33:34.123Z,0
2017-04-23T02:34:14.549Z,0
2017-04-23T02:34:54.967Z,0
2017-04-23T02:35:36.866Z,0
2017-04-23T02:36:17.260Z,0
2017-04-23T02:36:57.676Z,0
2017-04-23T02:37:38.089Z,0
2017-04-23T02:38:18.981Z,0
2017-04-23T02:38:59.385Z,0
2017-04-23T02:39:40.684Z,0
2017-04-23T02:40:22.023Z,0
2017-04-23T02:41:02.420Z,0
2017-04-23T02:41:47.723Z,0
2017-04-23T02:42:28.129Z,0
2017-04-23T02:43:08.530Z,0
2017-04-23T02:43:48.920Z,0
2017-04-23T02:44:30.090Z,0
2017-04-23T02:45:10.503Z,0
2017-04-23T02:45:52.850Z,0
2017-04-23T02:46:33.349Z,0
2017-04-23T02:47:15.933Z,0
2017-04-23T02:47:58.856Z,0
2017-04-23T02:48:39.949Z,0
2017-04-23T02:49:20.935Z,0
2017-04-23T02:50:01.434Z,0
2017-04-23T02:50:46.345Z,0
2017-04-23T02:51:27.355Z,0
2017-04-23T02:52:08.436Z,0
2017-04-23T02:52:48.902Z,0
2017-04-23T02:55:09.151Z,0
2017-04-23T02:55:51.407Z,0
2017-04-23T02:56:31.835Z,0
2017-04-23T02:57:12.249Z,0
2017-04-23T02:57:52.629Z,0
2017-04-23T02:58:33.150Z,0
2017-04-23T02:59:14.323Z,0
2017-04-23T02:59:55.619Z,0
2017-04-23T03:00:36.846Z,0
2017-04-23T03:01:18.104Z,0
2017-04-23T03:02:00.294Z,0
2017-04-23T03:02:42.081Z,0
2017-04-23T03:03:23.094Z,0
2017-04-23T03:04:03.505Z,0
2017-04-23T03:04:43.976Z,0
2017-04-23T03:05:24.347Z,0
2017-04-23T03:06:04.728Z,0
2017-04-23T03:06:45.114Z,0
2017-04-23T03:07:26.269Z,0
2017-04-23T03:08:07.610Z,0
2017-04-23T03:08:48.807Z,0
2017-04-23T03:09:29.265Z,0
2017-04-23T03:10:09.670Z,0
2017-04-23T03:10:50.671Z,0
2017-04-23T03:11:31.124Z,0
2017-04-23T03:12:13.273Z,0
2017-04-23T03:12:53.619Z,0
2017-04-23T03:13:34.067Z,0
2017-04-23T03:14:14.448Z,0
2017-04-23T03:14:55.760Z,0
2017-04-23T03:15:36.115Z,0
2017-04-23T03:16:17.245Z,0
2017-04-23T03:17:00.422Z,0
2017-04-23T03:17:41.556Z,0
2017-04-23T03:18:22.626Z,0
2017-04-23T03:19:03.071Z,0
2017-04-23T03:19:43.472Z,0
2017-04-23T03:20:25.750Z,0
2017-04-23T03:21:06.732Z,0
2017-04-23T03:21:47.161Z,0
2017-04-23T03:22:27.558Z,0
2017-04-23T03:23:08.842Z,0
2017-04-23T03:23:49.203Z,0
2017-04-23T03:24:31.160Z,0
2017-04-23T03:25:11.613Z,0
2017-04-23T03:25:52.569Z,0
2017-04-23T03:26:33.704Z,0
2017-04-23T03:27:14.105Z,0
2017-04-23T03:27:54.551Z,0
2017-04-23T03:28:34.914Z,0
2017-04-23T03:29:15.324Z,0
2017-04-23T03:29:57.105Z,0
2017-04-23T03:30:39.252Z,0
2017-04-23T03:31:19.638Z,0
2017-04-23T03:32:00.053Z,0
2017-04-23T03:32:40.485Z,0
2017-04-23T03:33:21.761Z,0
2017-04-23T03:34:02.214Z,0
2017-04-23T03:34:42.571Z,0
2017-04-23T03:35:23.005Z,0
2017-04-23T03:36:03.450Z,0
2017-04-23T03:36:43.868Z,0
2017-04-23T03:37:24.311Z,0
2017-04-23T03:38:04.742Z,0
2017-04-23T03:38:45.123Z,0
2017-04-23T03:39:25.552Z,0
2017-04-23T03:40:07.859Z,0
2017-04-23T03:40:48.201Z,0
2017-04-23T03:41:28.614Z,0
2017-04-23T03:42:09.042Z,0
2017-04-23T03:42:49.438Z,0
2017-04-23T03:43:29.803Z,4
2017-04-23T03:44:10.192Z,4
2017-04-23T03:44:50.638Z,4
2017-04-23T03:45:31.033Z,4
2017-04-23T03:46:11.491Z,0
2017-04-23T03:46:52.751Z,4
2017-04-23T03:47:33.153Z,4
2017-04-23T03:48:14.229Z,4
2017-04-23T03:48:55.280Z,4
2017-04-23T03:49:35.661Z,4
2017-04-23T03:50:16.563Z,8
2017-04-23T03:50:57.016Z,4
2017-04-23T03:51:37.420Z,8
2017-04-23T03:52:17.824Z,4
2017-04-23T03:52:58.314Z,8
2017-04-23T03:53:38.760Z,8
2017-04-23T03:54:19.165Z,12
2017-04-23T03:54:59.538Z,12
2017-04-23T03:55:40.921Z,16
2017-04-23T03:56:22.258Z,12
2017-04-23T03:57:02.659Z,16
2017-04-23T03:57:43.053Z,20
2017-04-23T03:58:24.145Z,20
2017-04-23T03:59:04.507Z,24
2017-04-23T03:59:45.667Z,28
2017-04-23T04:00:26.153Z,28
2017-04-23T04:01:06.549Z,28
2017-04-23T04:01:47.126Z,32
2017-04-23T04:02:27.557Z,36
2017-04-23T04:03:08.004Z,44
2017-04-23T04:03:50.556Z,44
2017-04-23T04:04:33.755Z,52
2017-04-23T04:05:14.215Z,56
2017-04-23T04:05:55.398Z,60
2017-04-23T04:06:37.086Z,64
2017-04-23T04:07:17.486Z,76
2017-04-23T04:07:58.564Z,80
2017-04-23T04:08:38.964Z,88
2017-04-23T04:09:19.421Z,96
2017-04-23T04:10:02.218Z,100
2017-04-23T04:10:42.634Z,108
2017-04-23T04:11:23.039Z,116
2017-04-23T04:12:04.328Z,128
2017-04-23T04:12:45.656Z,132
2017-04-23T04:13:26.038Z,144
2017-04-23T04:14:07.205Z,156
2017-04-23T04:14:47.621Z,164
2017-04-23T04:15:28.006Z,176
2017-04-23T04:16:10.362Z,188
2017-04-23T04:16:50.798Z,196
2017-04-23T04:17:31.194Z,208
2017-04-23T04:18:11.558Z,224
2017-04-23T04:18:51.942Z,236
2017-04-23T04:19:32.366Z,252
2017-04-23T04:20:12.753Z,268
2017-04-23T04:20:53.847Z,284
2017-04-23T04:21:34.235Z,304
2017-04-23T04:22:14.628Z,320
2017-04-23T04:22:55.029Z,336
2017-04-23T04:23:36.463Z,360
2017-04-23T04:24:16.859Z,376
2017-04-23T04:24:57.307Z,396
2017-04-23T04:25:37.637Z,416
2017-04-23T04:26:18.015Z,440
2017-04-23T04:26:58.442Z,460
2017-04-23T04:27:38.890Z,480
2017-04-23T04:28:19.325Z,500
2017-04-23T04:29:00.351Z,520
2017-04-23T04:29:40.734Z,540
2017-04-23T04:30:21.184Z,556
2017-04-23T04:31:01.618Z,576
2017-04-23T04:31:42.041Z,592
2017-04-23T04:32:22.501Z,612
2017-04-23T04:33:02.938Z,632
2017-04-23T04:33:43.298Z,652
2017-04-23T04:34:23.706Z,664
2017-04-23T04:35:04.129Z,684
2017-04-23T04:35:44.522Z,700
2017-04-23T04:36:24.958Z,712
2017-04-23T04:37:05.365Z,728
2017-04-23T04:37:46.570Z,744
2017-04-23T04:38:27.075Z,760
2017-04-23T04:39:07.439Z,784
2017-04-23T04:39:47.878Z,812
2017-04-23T04:40:28.256Z,836
2017-04-23T04:41:08.663Z,864
2017-04-23T04:41:49.106Z,896
2017-04-23T04:42:29.494Z,936
2017-04-23T04:43:09.906Z,968
2017-04-23T04:43:50.929Z,996
2017-04-23T04:44:31.397Z,1012
2017-04-23T04:45:11.785Z,1036
2017-04-23T04:45:52.208Z,1056
2017-04-23T04:46:32.622Z,1076
2017-04-23T04:47:12.964Z,1100
2017-04-23T04:47:53.408Z,1116
2017-04-23T04:48:33.805Z,1128
2017-04-23T04:49:14.217Z,1168
2017-04-23T04:49:54.660Z,1200
2017-04-23T04:50:35.045Z,1228
2017-04-23T04:51:16.493Z,1252
2017-04-23T04:51:56.849Z,1276
2017-04-23T04:54:33.380Z,1376
2017-04-23T04:55:22.385Z,1404
2017-04-23T04:56:10.526Z,1436
2017-04-23T04:56:59.177Z,1468
2017-04-23T04:57:47.744Z,1500
2017-04-23T04:58:36.388Z,1536
2017-04-23T04:59:24.846Z,1572
2017-04-23T05:00:13.773Z,1604
2017-04-23T05:01:03.170Z,1632
2017-04-23T05:01:52.242Z,1660
2017-04-23T05:02:40.984Z,1688
2017-04-23T05:03:29.182Z,1716
2017-04-23T05:04:18.029Z,1748
2017-04-23T05:05:06.933Z,1780
2017-04-23T05:05:55.305Z,1808
2017-04-23T05:06:43.713Z,1840
2017-04-23T05:07:32.636Z,1876
2017-04-23T05:08:20.971Z,1904
2017-04-23T05:09:09.479Z,1936
2017-04-23T05:09:57.949Z,1964
2017-04-23T05:10:46.646Z,2000
2017-04-23T05:11:34.829Z,2024
2017-04-23T05:12:21.762Z,2052
2017-04-23T05:13:09.190Z,2080
2017-04-23T05:13:57.899Z,2108
2017-04-23T05:14:46.763Z,2152
2017-04-23T05:15:35.102Z,2184
2017-04-23T05:16:23.839Z,2212
2017-04-23T05:17:12.542Z,2228
2017-04-23T05:18:01.425Z,2252
2017-04-23T05:18:49.986Z,2292
2017-04-23T05:19:38.162Z,2336
2017-04-23T05:20:25.635Z,2396
2017-04-23T05:21:07.330Z,2460
2017-04-23T05:21:47.745Z,2488
2017-04-23T05:22:28.157Z,2536
2017-04-23T05:23:10.112Z,2596
2017-04-23T05:23:50.544Z,2636
2017-04-23T05:24:30.922Z,2672
2017-04-23T05:25:12.090Z,2744
2017-04-23T05:25:53.298Z,2800
2017-04-23T05:26:33.692Z,2832
2017-04-23T05:27:14.957Z,2860
2017-04-23T05:27:55.401Z,2976
2017-04-23T05:28:35.828Z,3080
2017-04-23T05:29:16.287Z,3076
2017-04-23T05:29:58.271Z,3192
2017-04-23T05:30:39.611Z,3060
2017-04-23T05:31:20.022Z,3356
2017-04-23T05:32:00.424Z,3488
2017-04-23T05:32:41.779Z,3680
2017-04-23T05:33:22.244Z,3800
2017-04-23T05:34:02.564Z,3880
2017-04-23T05:34:43.027Z,3968
2017-04-23T05:35:23.374Z,4028
2017-04-23T05:36:03.766Z,3988
2017-04-23T05:36:44.986Z,4128
2017-04-23T05:37:25.392Z,4196
2017-04-23T05:38:06.305Z,4264
2017-04-23T05:38:46.793Z,4276
2017-04-23T05:39:27.901Z,4268
2017-04-23T05:40:08.290Z,4336
2017-04-23T05:40:48.687Z,4420
2017-04-23T05:41:30.775Z,4476
2017-04-23T05:42:11.198Z,4548
2017-04-23T05:42:52.550Z,4620
2017-04-23T05:43:34.813Z,4664
2017-04-23T05:44:16.146Z,4700
2017-04-23T05:44:56.536Z,4728
2017-04-23T05:45:37.013Z,4764
2017-04-23T05:46:18.150Z,4812
2017-04-23T05:46:58.606Z,4896
2017-04-23T05:47:39.841Z,4976
2017-04-23T05:48:20.280Z,5044
2017-04-23T05:49:01.468Z,5088
2017-04-23T05:49:41.890Z,5156
2017-04-23T05:50:22.295Z,5232
2017-04-23T05:51:02.693Z,5264
2017-04-23T05:51:43.776Z,5340
2017-04-23T05:52:24.217Z,5368
2017-04-23T05:53:04.599Z,4516
2017-04-23T05:53:47.995Z,4432
2017-04-23T05:54:28.266Z,4360
2017-04-23T05:55:08.653Z,3892
2017-04-23T05:55:49.030Z,3764
2017-04-23T05:56:29.487Z,3492
2017-04-23T05:57:10.595Z,3316
2017-04-23T05:57:51.007Z,3472
2017-04-23T05:58:32.126Z,3704
2017-04-23T05:59:13.820Z,4032
2017-04-23T05:59:54.774Z,4304
2017-04-23T06:00:35.155Z,4496
2017-04-23T06:01:17.122Z,4832
2017-04-23T06:01:57.560Z,6344
2017-04-23T06:04:17.839Z,5804
2017-04-23T06:05:06.593Z,6500
2017-04-23T06:05:55.074Z,5204
2017-04-23T06:06:43.820Z,5808
2017-04-23T06:07:32.709Z,7660
2017-04-23T06:08:21.004Z,7732
2017-04-23T06:09:09.636Z,7476
2017-04-23T06:09:58.006Z,8376
2017-04-23T06:10:46.805Z,8576
2017-04-23T06:11:35.217Z,8736
2017-04-23T06:12:24.195Z,8968
2017-04-23T06:13:12.323Z,9196
2017-04-23T06:14:01.047Z,9568
2017-04-23T06:14:49.911Z,10004
2017-04-23T06:15:30.928Z,10264
2017-04-23T06:16:11.342Z,10536
2017-04-23T06:16:54.194Z,10248
2017-04-23T06:17:34.617Z,11356
2017-04-23T06:18:15.784Z,12116
2017-04-23T06:18:56.156Z,12720
2017-04-23T06:19:36.577Z,13060
2017-04-23T06:20:16.945Z,13308
2017-04-23T06:20:57.391Z,13356
2017-04-23T06:21:38.742Z,13280
2017-04-23T06:22:19.100Z,13204
2017-04-23T06:23:02.247Z,12760
2017-04-23T06:23:42.653Z,12468
2017-04-23T06:24:25.357Z,12432
2017-04-23T06:25:09.409Z,12280
2017-04-23T06:25:49.891Z,12272
2017-04-23T06:26:30.344Z,11912
2017-04-23T06:27:10.696Z,13204
2017-04-23T06:27:52.960Z,14036
2017-04-23T06:28:33.985Z,13996
2017-04-23T06:29:16.790Z,11504
2017-04-23T06:29:58.763Z,11560
2017-04-23T06:30:39.697Z,11312
2017-04-23T06:31:20.095Z,11116
2017-04-23T06:32:00.571Z,10992
2017-04-23T06:32:43.722Z,10800
2017-04-23T06:33:25.066Z,10476
2017-04-23T06:34:05.566Z,10372
2017-04-23T06:34:45.965Z,10420
2017-04-23T06:35:26.453Z,10656
2017-04-23T06:36:08.360Z,11652
2017-04-23T06:36:48.782Z,12708
2017-04-23T06:37:31.712Z,13112
2017-04-23T06:38:13.683Z,11872
2017-04-23T06:38:54.948Z,10856
2017-04-23T06:41:36.775Z,9500
2017-04-23T06:42:18.564Z,9296
2017-04-23T06:42:58.925Z,9128
2017-04-23T06:43:40.194Z,9120
2017-04-23T06:44:20.628Z,9564
2017-04-23T06:46:41.287Z,9584
2017-04-23T06:51:02.650Z,13892
2017-04-23T06:53:42.391Z,15172
2017-04-23T06:54:30.842Z,15412
2017-04-23T06:55:19.771Z,15524
2017-04-23T06:56:08.066Z,15004
2017-04-23T06:56:55.856Z,14748
2017-04-23T06:57:45.068Z,14744
2017-04-23T06:58:34.102Z,14848
2017-04-23T06:59:14.010Z,15220
2017-04-23T06:59:54.503Z,15808
2017-04-23T07:00:34.843Z,16200
2017-04-23T07:01:18.919Z,16560
2017-04-23T07:02:00.670Z,17152
2017-04-23T07:02:41.091Z,17472
2017-04-23T07:03:23.107Z,18368
2017-04-23T07:04:05.150Z,18464
2017-04-23T07:06:27.410Z,18368
2017-04-23T07:07:15.683Z,18976
2017-04-23T07:07:55.688Z,19488
2017-04-23T07:08:36.250Z,20224
2017-04-23T07:09:16.808Z,21408
2017-04-23T07:09:58.990Z,20416
2017-04-23T07:10:40.251Z,20064
2017-04-23T07:11:20.637Z,20224
2017-04-23T07:12:01.083Z,20544
2017-04-23T07:12:42.584Z,20544
2017-04-23T07:13:26.198Z,21024
2017-04-23T07:14:06.571Z,21504
2017-04-23T07:14:47.670Z,21984
2017-04-23T07:15:28.556Z,21824
2017-04-23T07:16:08.854Z,20096
2017-04-23T07:16:49.278Z,16064
2017-04-23T07:17:29.758Z,14656
2017-04-23T07:18:12.645Z,14980
2017-04-23T07:18:53.008Z,13636
2017-04-23T07:19:35.137Z,12424
2017-04-23T07:20:17.218Z,12000
2017-04-23T07:20:58.401Z,12856
2017-04-23T07:21:38.796Z,13292
2017-04-23T07:22:19.174Z,11372
2017-04-23T07:23:00.202Z,9804
2017-04-23T07:23:41.727Z,8700
2017-04-23T07:24:23.044Z,8372
2017-04-23T07:25:03.630Z,8300
2017-04-23T07:25:44.028Z,7948
2017-04-23T07:26:25.415Z,8260
2017-04-23T07:27:05.865Z,9320
2017-04-23T07:27:46.277Z,9652
2017-04-23T07:28:27.497Z,9232
2017-04-23T07:29:09.235Z,9000
2017-04-23T07:29:52.395Z,9160
2017-04-23T07:30:37.261Z,10184
2017-04-23T07:31:17.845Z,13608
2017-04-23T07:31:58.829Z,18784
2017-04-23T07:32:40.145Z,20128
2017-04-23T07:33:20.539Z,20096
2017-04-23T07:34:00.955Z,65760
2017-04-23T07:34:41.523Z,32480
2017-04-23T07:35:22.013Z,21568
2017-04-23T07:36:04.733Z,18112
2017-04-23T07:36:45.329Z,15960
2017-04-23T07:37:25.782Z,14288
2017-04-23T07:38:06.592Z,13508
2017-04-23T07:38:47.117Z,12728
2017-04-23T07:39:27.735Z,12716
2017-04-23T07:40:08.136Z,14564
2017-04-23T07:40:48.535Z,21056
2017-04-23T07:41:29.120Z,16764
2017-04-23T07:42:09.476Z,16768
2017-04-23T07:42:51.665Z,17728
2017-04-23T07:43:32.124Z,18368
2017-04-23T07:44:15.981Z,20608
2017-04-23T07:44:56.411Z,23968
2017-04-23T07:45:36.791Z,19968
2017-04-23T07:46:17.259Z,18720
2017-04-23T07:46:58.440Z,22560
2017-04-23T07:47:38.808Z,20864
2017-04-23T07:48:19.235Z,17184
2017-04-23T07:50:39.522Z,18304
2017-04-23T07:51:28.072Z,18272
2017-04-23T07:52:10.897Z,16928
2017-04-23T07:52:51.745Z,15136
2017-04-23T07:53:32.992Z,13440
2017-04-23T07:54:13.581Z,13448
2017-04-23T07:54:53.953Z,14752
2017-04-23T07:55:35.353Z,32992
2017-04-23T07:56:15.747Z,15468
2017-04-23T07:56:57.014Z,15308
2017-04-23T07:57:37.417Z,15732
2017-04-23T07:58:18.511Z,15604
2017-04-23T07:58:58.949Z,15280
2017-04-23T07:59:42.172Z,14656
2017-04-23T08:00:23.945Z,14112
2017-04-23T08:01:04.575Z,13664
2017-04-23T08:01:45.462Z,13304
2017-04-23T08:02:25.910Z,12844
2017-04-23T08:03:13.795Z,12160
2017-04-23T08:04:00.816Z,11200
2017-04-23T08:04:48.967Z,10492
2017-04-23T08:05:29.350Z,10228
2017-04-23T08:06:09.933Z,9992
2017-04-23T08:06:53.181Z,9804
2017-04-23T08:07:33.657Z,9628
2017-04-23T08:08:15.824Z,9260
2017-04-23T08:09:00.397Z,8716
2017-04-23T08:09:40.861Z,8084
2017-04-23T08:10:23.854Z,7484
2017-04-23T08:11:08.808Z,7172
2017-04-23T08:11:52.282Z,6868
2017-04-23T08:12:34.279Z,6500
2017-04-23T08:13:15.769Z,6016
2017-04-23T08:13:58.101Z,5524
2017-04-23T08:14:42.043Z,5500
2017-04-23T08:15:27.087Z,5976
2017-04-23T08:16:07.469Z,6840
2017-04-23T08:16:47.971Z,7780
2017-04-23T08:17:28.359Z,8504
2017-04-23T08:18:11.462Z,8732
2017-04-23T08:18:51.850Z,8576
2017-04-23T08:19:37.052Z,8400
2017-04-23T08:20:20.313Z,8220
2017-04-23T08:21:02.100Z,8188
2017-04-23T08:21:43.889Z,8820
2017-04-23T08:22:28.128Z,9852
2017-04-23T08:23:11.051Z,10876
2017-04-23T08:23:53.178Z,11956
2017-04-23T08:24:37.386Z,12724
2017-04-23T08:25:17.806Z,13632
2017-04-23T08:26:02.902Z,14548
2017-04-23T08:26:45.042Z,15488
2017-04-23T08:27:25.431Z,16196
2017-04-23T08:28:08.807Z,17188
2017-04-23T08:28:52.121Z,19648
2017-04-23T08:29:32.540Z,21600
2017-04-23T08:30:23.802Z,24416
2017-04-23T08:31:04.208Z,25504
2017-04-23T08:31:44.677Z,22560
2017-04-23T08:32:25.142Z,22080
2017-04-23T08:33:08.483Z,21952
2017-04-23T08:33:50.676Z,21504
2017-04-23T08:34:33.121Z,20704
2017-04-23T08:35:13.585Z,19808
2017-04-23T08:35:56.960Z,18752
2017-04-23T08:36:40.964Z,18336
2017-04-23T08:37:25.810Z,18144
2017-04-23T08:38:06.241Z,16920
2017-04-23T08:38:49.897Z,15428
2017-04-23T08:39:30.284Z,14228
2017-04-23T08:40:10.722Z,13408
2017-04-23T08:40:51.103Z,12676
2017-04-23T08:41:34.160Z,11664
2017-04-23T08:42:16.407Z,10876
2017-04-23T08:42:58.706Z,10268
2017-04-23T08:43:41.160Z,9508
2017-04-23T08:44:23.047Z,8828
2017-04-23T08:45:03.640Z,8264
2017-04-23T08:45:44.084Z,7800
2017-04-23T08:46:24.546Z,7640
2017-04-23T08:47:06.666Z,7740
2017-04-23T08:47:54.331Z,7912
2017-04-23T08:48:37.640Z,7952
2017-04-23T08:49:25.303Z,7616
2017-04-23T08:50:07.713Z,7092
2017-04-23T08:50:49.120Z,6652
2017-04-23T08:51:33.273Z,6136
2017-04-23T08:52:17.925Z,5808
2017-04-23T08:52:58.370Z,5724
2017-04-23T08:53:38.902Z,5764
2017-04-23T08:54:20.963Z,5980
2017-04-23T08:55:04.108Z,6556
2017-04-23T08:55:47.379Z,7284
2017-04-23T08:56:32.372Z,8120
2017-04-23T08:57:13.525Z,9024
2017-04-23T08:57:56.970Z,10188
2017-04-23T08:58:42.203Z,11940
2017-04-23T08:59:26.440Z,13932
2017-04-23T09:01:30.270Z,16800
2017-04-23T09:02:21.510Z,16944
2017-04-23T09:03:10.860Z,16780
2017-04-23T09:03:58.280Z,16576
2017-04-23T09:04:47.188Z,15996
2017-04-23T09:05:35.443Z,15000
2017-04-23T09:06:25.044Z,14096
2017-04-23T09:07:10.132Z,13924
2017-04-23T09:07:50.562Z,13528
2017-04-23T09:08:31.963Z,12804
2017-04-23T09:09:12.365Z,12180
2017-04-23T09:09:53.669Z,11640
2017-04-23T09:10:34.189Z,11152
2017-04-23T09:11:15.377Z,10872
2017-04-23T09:11:57.351Z,10764
2017-04-23T09:12:37.700Z,10532
2017-04-23T09:13:19.599Z,9968
2017-04-23T09:14:03.212Z,9184
2017-04-23T09:14:44.661Z,8832
2017-04-23T09:15:28.371Z,8772
2017-04-23T09:16:11.568Z,8848
2017-04-23T09:16:52.113Z,9016
2017-04-23T09:17:34.186Z,9064
2017-04-23T09:18:16.495Z,8600
2017-04-23T09:19:00.712Z,7884
2017-04-23T09:19:41.217Z,7388
2017-04-23T09:20:27.220Z,7124
2017-04-23T09:21:13.498Z,6792
2017-04-23T09:21:53.780Z,6456
2017-04-23T09:22:38.848Z,6436
2017-04-23T09:23:19.340Z,6628
2017-04-23T09:24:02.107Z,6696
2017-04-23T09:24:47.016Z,6524
2017-04-23T09:25:26.667Z,6108
2017-04-23T09:26:08.570Z,5460
2017-04-23T09:26:51.726Z,5076
2017-04-23T09:27:35.227Z,4956
2017-04-23T09:28:19.512Z,4816
2017-04-23T09:29:01.166Z,4672
2017-04-23T09:29:43.201Z,4512
2017-04-23T09:30:23.140Z,4404
2017-04-23T09:31:05.281Z,4412
2017-04-23T09:31:45.683Z,4488
2017-04-23T09:32:26.832Z,4676
2017-04-23T09:33:07.221Z,4980
2017-04-23T09:33:48.447Z,5308
2017-04-23T09:34:28.898Z,5644
2017-04-23T09:35:09.860Z,5932
2017-04-23T09:35:51.197Z,6168
2017-04-23T09:36:37.648Z,6532
2017-04-23T09:37:18.921Z,6772
2017-04-23T09:37:59.386Z,6992
2017-04-23T09:38:39.817Z,7436
2017-04-23T09:39:20.223Z,7792
2017-04-23T09:40:00.541Z,8300
2017-04-23T09:40:41.909Z,8756
2017-04-23T09:41:22.950Z,8932
2017-04-23T09:44:03.548Z,9948
2017-04-23T09:44:52.314Z,10588
2017-04-23T09:45:40.815Z,11196
2017-04-23T09:46:29.208Z,11780
2017-04-23T09:47:17.579Z,12308
2017-04-23T09:48:01.682Z,12956
2017-04-23T09:48:42.666Z,13480
2017-04-23T09:49:23.933Z,13912
2017-04-23T09:50:04.553Z,14428
2017-04-23T09:50:45.930Z,14776
2017-04-23T09:51:28.870Z,14732
2017-04-23T09:52:09.315Z,14908
2017-04-23T09:52:50.340Z,15104
2017-04-23T09:55:19.678Z,15648
2017-04-23T09:56:00.026Z,16008
2017-04-23T09:56:41.333Z,16204
2017-04-23T09:57:22.416Z,16132
2017-04-23T09:58:03.557Z,16188
2017-04-23T09:58:45.848Z,16220
2017-04-23T09:59:26.240Z,15960
2017-04-23T10:00:06.677Z,15576
2017-04-23T10:00:47.021Z,15160
2017-04-23T10:01:28.040Z,14724
2017-04-23T10:02:09.019Z,14576
2017-04-23T10:02:50.383Z,14956
2017-04-23T10:03:30.793Z,15376
2017-04-23T10:04:11.296Z,15712
2017-04-23T10:04:53.571Z,15392
2017-04-23T10:05:35.308Z,14676
2017-04-23T10:06:15.719Z,13784
2017-04-23T10:06:56.119Z,13228
2017-04-23T10:07:39.040Z,12628
2017-04-23T10:08:19.468Z,12104
2017-04-23T10:08:59.814Z,11648
2017-04-23T10:09:40.292Z,11608
2017-04-23T10:10:20.654Z,11368
2017-04-23T10:11:01.620Z,10904
2017-04-23T10:11:45.537Z,10236
2017-04-23T10:12:26.072Z,9580
2017-04-23T10:13:06.381Z,8868
2017-04-23T10:13:46.826Z,8016
2017-04-23T10:14:27.228Z,7208
2017-04-23T10:15:07.644Z,6492
2017-04-23T10:15:48.078Z,5892
2017-04-23T10:16:28.474Z,5344
2017-04-23T10:17:09.365Z,4808
2017-04-23T10:17:49.731Z,4316
2017-04-23T10:18:30.108Z,3904
2017-04-23T10:19:10.533Z,3580
2017-04-23T10:19:50.969Z,3328
2017-04-23T10:20:31.378Z,3180
2017-04-23T10:21:11.754Z,3168
2017-04-23T10:21:52.159Z,3252